createdAt,value
2023-02-27T00:01:04.993Z,10.50
2023-02-27T00:03:32.976Z,14.97
2023-02-27T00:06:00.857Z,13.93
2023-02-27T00:08:29.187Z,12.37
2023-02-27T00:10:58.345Z,11.60
2023-02-27T00:13:26.358Z,8.90
2023-02-27T00:15:56.323Z,12.40
2023-02-27T00:18:25.704Z,10.23
2023-02-27T00:20:53.798Z,8.47
2023-02-27T00:23:22.873Z,13.17
2023-02-27T00:25:52.173Z,11.03
2023-02-27T00:28:19.938Z,12.93
2023-02-27T00:30:47.988Z,13.33
2023-02-27T00:33:17.349Z,4.33
2023-02-27T00:35:46.835Z,10.93
2023-02-27T00:38:14.775Z,8.03
2023-02-27T00:40:42.557Z,4.50
2023-02-27T00:43:10.388Z,7.47
2023-02-27T00:45:38.205Z,7.07
2023-02-27T00:48:06.144Z,5.43
2023-02-27T00:50:34.101Z,6.37
2023-02-27T00:53:03.545Z,7.70
2023-02-27T00:55:35.707Z,6.20
2023-02-27T00:58:03.873Z,5.03
2023-02-27T01:00:32.402Z,9.57
2023-02-27T01:03:00.973Z,7.63
2023-02-27T01:05:28.849Z,4.00
2023-02-27T01:07:56.631Z,6.53
2023-02-27T01:10:26.414Z,4.97
2023-02-27T01:12:54.199Z,4.83
2023-02-27T01:15:22.063Z,6.60
2023-02-27T01:17:49.844Z,6.27
2023-02-27T01:20:17.886Z,4.00
2023-02-27T01:22:46.722Z,5.87
2023-02-27T01:25:14.633Z,4.57
2023-02-27T01:27:45.404Z,7.60
2023-02-27T01:30:15.764Z,5.63
2023-02-27T01:32:45.850Z,4.90
2023-02-27T01:35:14.358Z,7.53
2023-02-27T01:37:42.539Z,3.83
2023-02-27T01:40:13.696Z,5.63
2023-02-27T01:42:41.588Z,4.67
2023-02-27T01:45:30.910Z,3.73
2023-02-27T01:48:13.275Z,4.57
2023-02-27T01:50:46.963Z,5.73
2023-02-27T01:53:15.661Z,5.20
2023-02-27T01:55:44.669Z,5.10
2023-02-27T01:58:14.719Z,6.00
2023-02-27T02:00:44.808Z,5.03
2023-02-27T02:03:22.294Z,6.30
2023-02-27T02:05:54.537Z,4.23
2023-02-27T02:08:24.430Z,6.10
2023-02-27T02:10:54.794Z,4.67
2023-02-27T02:13:23.771Z,5.50
2023-02-27T02:16:06.424Z,5.30
2023-02-27T02:18:46.698Z,4.87
2023-02-27T02:21:47.708Z,5.80
2023-02-27T02:24:57.355Z,6.27
2023-02-27T02:27:39.325Z,4.70
2023-02-27T02:30:37.502Z,6.67
2023-02-27T02:33:33.642Z,4.77
2023-02-27T02:36:29.912Z,4.27
2023-02-27T02:39:43.465Z,5.30
2023-02-27T02:42:21.042Z,5.30
2023-02-27T02:44:58.220Z,4.93
2023-02-27T02:47:35.003Z,5.03
2023-02-27T02:50:10.153Z,6.03
2023-02-27T02:52:46.898Z,6.40
2023-02-27T02:55:24.641Z,6.77
2023-02-27T02:57:57.377Z,5.53
2023-02-27T03:00:31.287Z,4.20
2023-02-27T03:03:04.511Z,5.57
2023-02-27T03:05:37.074Z,3.97
2023-02-27T03:08:13.787Z,5.93
2023-02-27T03:10:47.506Z,7.57
2023-02-27T03:13:22.436Z,5.53
2023-02-27T03:15:59.880Z,6.87
2023-02-27T03:18:34.308Z,5.10
2023-02-27T03:21:07.077Z,8.20
2023-02-27T03:23:41.806Z,6.57
2023-02-27T03:26:19.259Z,5.67
2023-02-27T03:28:56.971Z,5.30
2023-02-27T03:31:31.426Z,4.63
2023-02-27T03:34:09.917Z,4.77
2023-02-27T03:36:47.851Z,3.80
2023-02-27T03:39:26.180Z,6.27
2023-02-27T03:42:04.199Z,7.40
2023-02-27T03:44:59.437Z,8.07
2023-02-27T03:47:28.471Z,5.83
2023-02-27T03:49:57.137Z,5.37
2023-02-27T03:52:27.192Z,7.17
2023-02-27T03:55:01.490Z,7.10
2023-02-27T03:57:36.335Z,4.23
2023-02-27T04:00:09.533Z,6.73
2023-02-27T04:02:43.129Z,8.40
2023-02-27T04:05:11.970Z,6.17
2023-02-27T04:07:59.202Z,7.70
2023-02-27T04:10:38.480Z,5.97
2023-02-27T04:13:26.822Z,5.93
2023-02-27T04:16:08.906Z,7.60
2023-02-27T04:18:52.508Z,5.63
2023-02-27T04:21:28.577Z,8.47
2023-02-27T04:24:04.814Z,9.17
2023-02-27T04:26:42.705Z,8.03
2023-02-27T04:29:17.811Z,6.50
2023-02-27T04:31:51.734Z,5.90
2023-02-27T04:34:25.189Z,6.03
2023-02-27T04:37:01.382Z,6.40
2023-02-27T04:39:33.752Z,6.17
2023-02-27T04:42:08.016Z,5.93
2023-02-27T04:44:41.084Z,5.67
2023-02-27T04:47:11.506Z,8.73
2023-02-27T04:49:47.878Z,6.07
2023-02-27T04:52:24.999Z,7.67
2023-02-27T04:55:00.775Z,4.80
2023-02-27T04:57:33.819Z,5.77
2023-02-27T05:00:07.982Z,6.23
2023-02-27T05:02:40.977Z,5.60
2023-02-27T05:05:15.425Z,8.57
2023-02-27T05:07:50.523Z,11.20
2023-02-27T05:10:27.478Z,7.07
2023-02-27T05:12:58.603Z,7.77
2023-02-27T05:15:38.205Z,9.03
2023-02-27T05:18:13.269Z,10.53
2023-02-27T05:20:53.651Z,7.70
2023-02-27T05:23:31.232Z,7.83
2023-02-27T05:26:04.122Z,7.97
2023-02-27T05:28:38.000Z,5.60
2023-02-27T05:31:15.468Z,9.50
2023-02-27T05:33:50.520Z,11.67
2023-02-27T05:36:24.131Z,6.13
2023-02-27T05:38:56.459Z,9.27
2023-02-27T05:41:29.662Z,10.13
2023-02-27T05:44:02.698Z,6.60
2023-02-27T05:46:35.072Z,11.17
2023-02-27T05:49:14.790Z,8.73
2023-02-27T05:51:50.023Z,10.87
2023-02-27T05:54:23.778Z,9.93
2023-02-27T05:56:55.127Z,12.60
2023-02-27T05:59:28.114Z,9.47
2023-02-27T06:01:57.767Z,8.03
2023-02-27T06:04:25.826Z,7.47
2023-02-27T06:06:55.224Z,9.37
2023-02-27T06:09:24.049Z,7.77
2023-02-27T06:11:53.086Z,7.93
2023-02-27T06:14:21.061Z,7.50
2023-02-27T06:16:48.878Z,7.53
2023-02-27T06:19:18.415Z,7.73
2023-02-27T06:21:46.221Z,7.37
2023-02-27T06:24:15.171Z,13.87
2023-02-27T06:26:43.197Z,9.97
2023-02-27T06:29:11.250Z,10.33
2023-02-27T06:31:39.231Z,7.57
2023-02-27T06:34:07.489Z,8.83
2023-02-27T06:36:37.389Z,9.17
2023-02-27T06:39:06.009Z,7.83
2023-02-27T06:41:33.911Z,7.87
2023-02-27T06:44:02.222Z,9.50
2023-02-27T06:46:30.940Z,8.07
2023-02-27T06:48:58.841Z,8.90
2023-02-27T06:51:26.693Z,6.67
2023-02-27T06:53:56.012Z,9.73
2023-02-27T06:56:23.860Z,8.73
2023-02-27T06:58:53.725Z,9.60
2023-02-27T07:01:23.499Z,7.47
2023-02-27T07:03:51.683Z,11.03
2023-02-27T07:06:22.462Z,9.23
2023-02-27T07:09:11.490Z,8.93
2023-02-27T07:11:39.845Z,9.47
2023-02-27T07:14:07.790Z,7.37
2023-02-27T07:16:35.653Z,8.17
2023-02-27T07:19:04.405Z,8.50
2023-02-27T07:21:32.737Z,11.07
2023-02-27T07:24:00.796Z,10.33
2023-02-27T07:26:31.078Z,12.10
2023-02-27T07:28:59.034Z,6.77
2023-02-27T07:31:28.970Z,8.77
2023-02-27T07:33:57.577Z,7.27
2023-02-27T07:36:26.015Z,9.73
2023-02-27T07:38:54.210Z,7.23
2023-02-27T07:41:30.438Z,11.53
2023-02-27T07:44:03.239Z,8.00
2023-02-27T07:46:31.668Z,9.73
2023-02-27T07:49:00.535Z,7.87
2023-02-27T07:51:28.667Z,10.20
2023-02-27T07:53:58.327Z,6.27
2023-02-27T07:56:27.174Z,8.57
2023-02-27T07:58:55.730Z,6.80
2023-02-27T08:01:25.059Z,9.07
2023-02-27T08:03:53.332Z,6.93
2023-02-27T08:06:22.783Z,10.93
2023-02-27T08:08:50.952Z,10.33
2023-02-27T08:11:19.302Z,8.53
2023-02-27T08:14:00.026Z,5.87
2023-02-27T08:16:31.515Z,12.13
2023-02-27T08:19:00.174Z,9.33
2023-02-27T08:21:28.985Z,7.77
2023-02-27T08:23:57.112Z,7.50
2023-02-27T08:26:28.139Z,8.83
2023-02-27T08:28:58.785Z,7.30
2023-02-27T08:31:26.857Z,8.43
2023-02-27T08:34:07.802Z,8.83
2023-02-27T08:36:38.104Z,7.50
2023-02-27T08:39:06.785Z,7.87
2023-02-27T08:41:35.857Z,7.57
2023-02-27T08:44:04.147Z,8.07
2023-02-27T08:46:32.078Z,8.23
2023-02-27T08:49:01.699Z,9.13
2023-02-27T08:51:44.797Z,9.43
2023-02-27T08:54:15.319Z,9.03
2023-02-27T08:56:46.555Z,8.17
2023-02-27T08:59:17.753Z,6.77
2023-02-27T09:01:49.643Z,13.10
2023-02-27T09:04:30.626Z,7.97
2023-02-27T09:07:09.546Z,10.43
2023-02-27T09:09:37.745Z,11.03
2023-02-27T09:12:06.500Z,11.53
2023-02-27T09:14:35.042Z,6.03
2023-02-27T09:17:04.041Z,6.70
2023-02-27T09:19:34.258Z,5.97
2023-02-27T09:22:02.594Z,8.50
2023-02-27T09:24:33.191Z,9.47
2023-02-27T09:27:02.200Z,7.67
2023-02-27T09:29:32.592Z,10.10
2023-02-27T09:32:04.941Z,4.80
2023-02-27T09:34:35.815Z,7.63
2023-02-27T09:37:07.756Z,6.67
2023-02-27T09:39:36.412Z,9.87
2023-02-27T09:42:10.682Z,9.57
2023-02-27T09:44:47.140Z,4.87
2023-02-27T09:47:24.511Z,5.53
2023-02-27T09:50:04.873Z,5.93
2023-02-27T09:52:37.377Z,4.23
2023-02-27T09:55:13.323Z,5.43
2023-02-27T09:57:48.402Z,8.60
2023-02-27T10:00:40.590Z,5.27
2023-02-27T10:03:26.862Z,8.43
2023-02-27T10:06:13.339Z,4.10
2023-02-27T10:08:52.669Z,5.93
2023-02-27T10:11:35.074Z,4.53
2023-02-27T10:14:20.660Z,6.97
2023-02-27T10:16:51.833Z,4.57
2023-02-27T10:19:26.441Z,4.93
2023-02-27T10:22:10.804Z,3.97
2023-02-27T10:24:48.503Z,4.93
2023-02-27T10:27:22.340Z,4.63
2023-02-27T10:29:58.109Z,5.90
2023-02-27T10:32:33.503Z,3.60
2023-02-27T10:35:09.933Z,4.00
2023-02-27T10:37:48.596Z,4.50
2023-02-27T10:40:20.620Z,4.27
2023-02-27T10:42:49.099Z,4.50
2023-02-27T10:45:17.235Z,5.53
2023-02-27T10:47:45.136Z,5.00
2023-02-27T10:50:26.280Z,4.03
2023-02-27T10:53:03.134Z,5.83
2023-02-27T10:55:32.944Z,6.33
2023-02-27T10:58:07.371Z,5.97
2023-02-27T11:00:44.275Z,5.97
2023-02-27T11:03:21.605Z,5.20
2023-02-27T11:05:56.977Z,4.37
2023-02-27T11:08:31.255Z,3.63
2023-02-27T11:11:04.168Z,4.70
2023-02-27T11:13:34.004Z,3.83
2023-02-27T11:16:06.465Z,3.97
2023-02-27T11:18:39.093Z,4.97
2023-02-27T11:21:15.090Z,3.90
2023-02-27T11:23:55.281Z,4.00
2023-02-27T11:26:28.414Z,4.00
2023-02-27T11:29:15.454Z,6.00
2023-02-27T11:31:51.609Z,4.97
2023-02-27T11:34:25.123Z,3.73
2023-02-27T11:37:00.555Z,3.47
2023-02-27T11:39:35.816Z,4.83
2023-02-27T11:42:17.449Z,4.53
2023-02-27T11:44:55.254Z,4.87
2023-02-27T11:47:28.278Z,4.20
2023-02-27T11:50:24.589Z,3.13
2023-02-27T11:52:58.619Z,4.90
2023-02-27T11:55:29.200Z,4.40
2023-02-27T11:58:03.811Z,6.30
2023-02-27T12:00:37.366Z,4.73
2023-02-27T12:03:14.681Z,4.00
2023-02-27T12:05:47.208Z,2.50
2023-02-27T12:08:19.866Z,7.43
2023-02-27T12:11:11.488Z,6.70
2023-02-27T12:13:44.753Z,4.17
2023-02-27T12:16:21.485Z,3.30
2023-02-27T12:18:55.072Z,4.10
2023-02-27T12:21:28.585Z,7.03
2023-02-27T12:24:02.556Z,3.57
2023-02-27T12:26:35.773Z,7.77
2023-02-27T12:29:14.355Z,4.07
2023-02-27T12:31:48.388Z,5.40
2023-02-27T12:34:28.548Z,4.43
2023-02-27T12:37:04.734Z,3.93
2023-02-27T12:39:34.846Z,4.27
2023-02-27T12:42:39.518Z,4.73
2023-02-27T12:45:36.094Z,4.93
2023-02-27T12:48:15.111Z,8.27
2023-02-27T12:50:50.515Z,2.97
2023-02-27T12:53:36.490Z,5.77
2023-02-27T12:56:10.590Z,5.03
2023-02-27T12:58:51.610Z,5.10
2023-02-27T13:01:30.974Z,5.60
2023-02-27T13:04:04.703Z,3.33
2023-02-27T13:06:41.816Z,5.80
2023-02-27T13:09:21.445Z,3.97
2023-02-27T13:12:10.144Z,4.37
2023-02-27T13:14:49.799Z,7.50
2023-02-27T13:17:24.451Z,4.27
2023-02-27T13:19:54.747Z,4.33
2023-02-27T13:22:33.936Z,2.87
2023-02-27T13:25:08.446Z,4.57
2023-02-27T13:27:41.428Z,3.73
2023-02-27T13:30:20.439Z,4.43
2023-02-27T13:32:52.743Z,4.47
2023-02-27T13:35:29.353Z,3.63
2023-02-27T13:38:01.674Z,3.97
2023-02-27T13:40:33.158Z,3.23
2023-02-27T13:43:03.551Z,3.33
2023-02-27T13:46:04.220Z,4.73
2023-02-27T13:48:42.676Z,3.73
2023-02-27T13:51:32.620Z,5.03
2023-02-27T13:54:19.861Z,4.10
2023-02-27T13:56:50.366Z,5.73
2023-02-27T13:59:24.771Z,5.23
2023-02-27T14:01:57.342Z,4.03
2023-02-27T14:04:28.399Z,3.03
2023-02-27T14:07:00.259Z,5.27
2023-02-27T14:09:36.040Z,5.40
2023-02-27T14:12:06.502Z,6.70
2023-02-27T14:14:44.392Z,5.00
2023-02-27T14:17:34.917Z,3.40
2023-02-27T14:20:06.634Z,4.67
2023-02-27T14:22:45.577Z,4.10
2023-02-27T14:25:27.731Z,3.77
2023-02-27T14:27:57.679Z,5.43
2023-02-27T14:30:33.219Z,4.30
2023-02-27T14:33:08.362Z,5.53
2023-02-27T14:35:38.180Z,5.23
2023-02-27T14:38:11.658Z,2.70
2023-02-27T14:40:49.842Z,4.33
2023-02-27T14:43:30.384Z,2.33
2023-02-27T14:46:12.960Z,3.77
2023-02-27T14:48:41.378Z,2.53
2023-02-27T14:51:11.459Z,3.13
2023-02-27T14:53:39.956Z,6.80
2023-02-27T14:56:18.214Z,2.70
2023-02-27T14:58:55.556Z,3.93
2023-02-27T15:01:36.348Z,5.53
2023-02-27T15:04:05.708Z,3.47
2023-02-27T15:06:40.868Z,4.00
2023-02-27T15:09:09.778Z,5.73
2023-02-27T15:11:46.537Z,6.03
2023-02-27T15:14:22.537Z,4.70
2023-02-27T15:16:55.794Z,2.67
2023-02-27T15:19:26.139Z,4.73
2023-02-27T15:21:58.576Z,6.07
2023-02-27T15:24:31.476Z,5.70
2023-02-27T15:27:05.252Z,4.07
2023-02-27T15:29:40.086Z,4.70
2023-02-27T15:32:08.651Z,5.17
2023-02-27T15:34:37.484Z,4.37
2023-02-27T15:37:07.680Z,3.50
2023-02-27T15:39:37.639Z,3.53
2023-02-27T15:42:07.059Z,4.50
2023-02-27T15:44:40.079Z,6.63
2023-02-27T15:47:09.592Z,3.00
2023-02-27T15:49:38.446Z,5.43
2023-02-27T15:52:17.264Z,4.17
2023-02-27T15:54:49.685Z,3.87
2023-02-27T15:57:17.722Z,3.57
2023-02-27T15:59:45.651Z,5.00
2023-02-27T16:02:21.566Z,7.50
2023-02-27T16:04:49.782Z,5.03
2023-02-27T16:07:46.822Z,3.67
2023-02-27T16:10:23.951Z,6.03
2023-02-27T16:12:53.366Z,6.23
2023-02-27T16:15:25.403Z,4.47
2023-02-27T16:17:55.642Z,7.50
2023-02-27T16:20:32.862Z,3.60
2023-02-27T16:23:05.806Z,4.47
2023-02-27T16:25:35.443Z,9.30
2023-02-27T16:28:03.269Z,2.57
2023-02-27T16:30:31.039Z,2.47
2023-02-27T16:33:04.476Z,6.43
2023-02-27T16:35:33.959Z,5.63
2023-02-27T16:38:03.702Z,3.57
2023-02-27T16:40:33.851Z,3.50
2023-02-27T16:43:03.548Z,4.17
2023-02-27T16:45:31.970Z,4.90
2023-02-27T16:48:01.671Z,3.70
2023-02-27T16:50:33.160Z,3.50
2023-02-27T16:53:01.765Z,4.33
2023-02-27T16:55:31.471Z,2.77
2023-02-27T16:58:00.394Z,4.60
2023-02-27T17:00:30.479Z,2.37
2023-02-27T17:02:58.496Z,5.03
2023-02-27T17:05:26.763Z,3.53
2023-02-27T17:07:54.624Z,2.80
2023-02-27T17:10:25.479Z,3.97
2023-02-27T17:12:53.606Z,4.30
2023-02-27T17:15:21.999Z,3.73
2023-02-27T17:17:52.043Z,6.10
2023-02-27T17:20:20.216Z,4.40
2023-02-27T17:22:48.077Z,7.87
2023-02-27T17:25:16.249Z,5.10
2023-02-27T17:27:44.526Z,6.73
2023-02-27T17:30:13.354Z,2.93
2023-02-27T17:32:41.289Z,5.73
2023-02-27T17:35:11.177Z,4.43
2023-02-27T17:37:39.328Z,3.60
2023-02-27T17:40:08.128Z,4.87
2023-02-27T17:42:37.268Z,3.70
2023-02-27T17:45:06.364Z,4.70
2023-02-27T17:47:35.042Z,5.80
2023-02-27T17:50:04.034Z,7.67
2023-02-27T17:52:33.331Z,4.43
2023-02-27T17:55:01.155Z,4.03
2023-02-27T17:57:29.198Z,6.07
2023-02-27T17:59:57.276Z,6.90
2023-02-27T18:02:25.083Z,3.97
2023-02-27T18:04:53.126Z,5.07
2023-02-27T18:07:21.065Z,4.43
2023-02-27T18:09:50.377Z,4.20
2023-02-27T18:12:18.206Z,3.63
2023-02-27T18:14:45.974Z,4.43
2023-02-27T18:17:13.952Z,5.50
2023-02-27T18:19:42.628Z,5.07
2023-02-27T18:22:10.951Z,4.03
2023-02-27T18:24:39.157Z,6.23
2023-02-27T18:27:08.632Z,7.27
2023-02-27T18:29:36.980Z,6.43
2023-02-27T18:32:05.283Z,6.27
2023-02-27T18:34:33.287Z,5.13
2023-02-27T18:37:01.021Z,3.83
2023-02-27T18:39:29.315Z,5.87
2023-02-27T18:41:58.373Z,6.47
2023-02-27T18:44:27.867Z,4.03
2023-02-27T18:46:55.846Z,4.87
2023-02-27T18:49:23.852Z,8.83
2023-02-27T18:51:52.260Z,6.67
2023-02-27T18:54:20.166Z,7.03
2023-02-27T18:56:50.812Z,6.23
2023-02-27T18:59:18.621Z,5.87
2023-02-27T19:01:47.899Z,5.97
2023-02-27T19:04:15.733Z,8.37
2023-02-27T19:06:43.981Z,8.00
2023-02-27T19:09:15.877Z,9.17
2023-02-27T19:11:44.411Z,6.57
2023-02-27T19:14:14.417Z,5.00
2023-02-27T19:16:42.444Z,6.00
2023-02-27T19:19:12.195Z,8.07
2023-02-27T19:21:40.206Z,6.40
2023-02-27T19:24:09.111Z,9.03
2023-02-27T19:26:36.870Z,6.40
2023-02-27T19:29:05.612Z,12.00
2023-02-27T19:31:33.841Z,5.80
2023-02-27T19:34:02.031Z,8.13
2023-02-27T19:36:32.043Z,8.77
2023-02-27T19:39:00.383Z,9.73
2023-02-27T19:41:30.424Z,7.23
2023-02-27T19:43:59.970Z,7.63
2023-02-27T19:46:30.826Z,10.17
2023-02-27T19:49:01.297Z,9.00
2023-02-27T19:51:30.913Z,7.40
2023-02-27T19:53:58.830Z,8.90
2023-02-27T19:56:28.799Z,11.03
2023-02-27T19:58:57.673Z,6.53
2023-02-27T20:01:27.571Z,6.27
2023-02-27T20:03:56.573Z,7.27
2023-02-27T20:06:26.672Z,6.47
2023-02-27T20:08:57.171Z,6.30
2023-02-27T20:11:25.187Z,7.83
2023-02-27T20:13:53.133Z,6.80
2023-02-27T20:16:24.009Z,9.47
2023-02-27T20:18:51.967Z,11.43
2023-02-27T20:21:22.160Z,9.50
2023-02-27T20:23:51.614Z,6.93
2023-02-27T20:26:22.942Z,10.20
2023-02-27T20:28:52.731Z,6.57
2023-02-27T20:31:23.328Z,10.80
2023-02-27T20:33:51.566Z,8.10
2023-02-27T20:36:20.145Z,7.83
2023-02-27T20:38:48.048Z,7.50
2023-02-27T20:41:18.414Z,9.40
2023-02-27T20:43:49.065Z,6.47
2023-02-27T20:46:19.837Z,8.80
2023-02-27T20:48:48.246Z,8.03
2023-02-27T20:51:19.907Z,8.33
2023-02-27T20:53:50.084Z,6.80
2023-02-27T20:56:20.605Z,5.53
2023-02-27T20:58:50.252Z,8.60
2023-02-27T21:01:19.308Z,10.37
2023-02-27T21:03:50.386Z,9.20
2023-02-27T21:06:19.330Z,8.70
2023-02-27T21:08:49.198Z,10.17
2023-02-27T21:11:19.318Z,8.93
2023-02-27T21:13:47.253Z,8.40
2023-02-27T21:16:18.194Z,7.70
2023-02-27T21:18:46.415Z,8.10
2023-02-27T21:21:16.939Z,8.23
2023-02-27T21:23:45.414Z,7.13
2023-02-27T21:26:17.790Z,8.17
2023-02-27T21:28:50.061Z,8.20
2023-02-27T21:31:22.020Z,10.27
2023-02-27T21:33:51.136Z,9.07
2023-02-27T21:36:19.314Z,8.60
2023-02-27T21:38:47.138Z,7.73
2023-02-27T21:41:14.834Z,9.80
2023-02-27T21:43:42.595Z,7.93
2023-02-27T21:46:12.608Z,7.87
2023-02-27T21:48:41.990Z,8.23
2023-02-27T21:51:10.226Z,8.20
2023-02-27T21:53:37.973Z,7.10
2023-02-27T21:56:07.297Z,8.70
2023-02-27T21:58:35.642Z,7.57
2023-02-27T22:01:03.464Z,7.87
2023-02-27T22:03:34.329Z,6.43
2023-02-27T22:06:03.581Z,6.53
2023-02-27T22:08:31.609Z,7.50
2023-02-27T22:11:00.037Z,7.67
2023-02-27T22:13:29.313Z,8.60
2023-02-27T22:15:57.261Z,8.77
2023-02-27T22:18:26.146Z,8.53
2023-02-27T22:20:53.956Z,8.53
2023-02-27T22:23:23.220Z,6.27
2023-02-27T22:26:01.367Z,11.33
2023-02-27T22:28:30.250Z,8.07
2023-02-27T22:31:08.568Z,7.37
2023-02-27T22:33:37.387Z,9.20
2023-02-27T22:36:09.909Z,9.47
2023-02-27T22:38:39.136Z,7.70
2023-02-27T22:41:08.428Z,9.40
2023-02-27T22:43:38.266Z,7.17
2023-02-27T22:46:06.759Z,9.50
2023-02-27T22:48:34.665Z,10.73
2023-02-27T22:51:05.241Z,8.93
2023-02-27T22:53:38.300Z,10.73
2023-02-27T22:56:10.382Z,8.27
2023-02-27T22:58:39.514Z,9.10
2023-02-27T23:01:11.469Z,9.00
2023-02-27T23:03:40.655Z,9.87
2023-02-27T23:06:10.061Z,7.57
2023-02-27T23:08:38.067Z,7.70
2023-02-27T23:11:07.733Z,11.23
2023-02-27T23:13:36.128Z,9.37
2023-02-27T23:16:11.277Z,9.17
2023-02-27T23:18:39.667Z,9.20
2023-02-27T23:21:07.910Z,9.13
2023-02-27T23:23:35.816Z,7.23
2023-02-27T23:26:04.180Z,8.80
2023-02-27T23:28:35.128Z,9.40
2023-02-27T23:31:03.116Z,10.17
2023-02-27T23:33:31.572Z,9.93
2023-02-27T23:36:00.822Z,8.40
2023-02-27T23:38:29.295Z,8.23
2023-02-27T23:40:57.785Z,8.83
2023-02-27T23:43:43.551Z,7.57
2023-02-27T23:46:14.514Z,7.40
2023-02-27T23:48:42.389Z,11.30
2023-02-27T23:51:11.404Z,10.93
2023-02-27T23:53:41.257Z,11.60
2023-02-27T23:56:17.627Z,13.03
2023-02-27T23:58:45.913Z,10.17
